Time;durP1;ratioP1;P1;durP2;ratioP2;P2;SDS_P1;SDS_P2;PMS_P1;PMS_P2;Temp;Humidity;BMP_temperature;BMP_pressure;BME280_temperature;BME280_humidity;BME280_pressure;Samples;Min_cycle;Max_cycle;Signal;HPM_P1;HPM_P2
2021/01/14 00:00:27;;;;;;;1.40;1.17;;;2.40;96.30;;;;;;5084654;28;27345;-48
2021/01/14 00:03:12;;;;;;;1.80;1.20;;;2.40;96.30;;;;;;5084469;28;27629;-48
2021/01/14 00:05:57;;;;;;;1.27;1.15;;;2.30;96.30;;;;;;5084654;28;27962;-50
2021/01/14 00:08:42;;;;;;;1.40;0.90;;;2.30;96.30;;;;;;5084764;28;27313;-48
2021/01/14 00:11:26;;;;;;;1.45;1.20;;;2.30;96.30;;;;;;5081320;28;27340;-50
2021/01/14 00:14:11;;;;;;;2.25;1.10;;;2.30;96.30;;;;;;5084463;28;27376;-48
2021/01/14 00:16:56;;;;;;;1.55;0.90;;;2.30;96.30;;;;;;5084404;28;27375;-49
2021/01/14 00:19:40;;;;;;;1.23;0.93;;;2.30;96.30;;;;;;5084372;28;27502;-50
2021/01/14 00:22:25;;;;;;;2.50;1.10;;;2.30;96.30;;;;;;5084101;28;27341;-49
2021/01/14 00:25:10;;;;;;;1.08;0.90;;;2.30;96.40;;;;;;5084300;28;27467;-49
2021/01/14 00:27:55;;;;;;;1.25;0.70;;;2.30;96.40;;;;;;5084176;28;27944;-50
2021/01/14 00:30:40;;;;;;;1.05;1.00;;;2.30;96.40;;;;;;5069003;28;27605;-49
2021/01/14 00:33:24;;;;;;;1.13;0.80;;;2.30;96.40;;;;;;5084545;28;27542;-52
2021/01/14 00:36:09;;;;;;;0.70;0.70;;;2.30;96.40;;;;;;5083996;28;27411;-50
2021/01/14 00:38:54;;;;;;;0.90;0.80;;;2.30;96.40;;;;;;5084089;28;27470;-49
2021/01/14 00:41:38;;;;;;;1.00;0.80;;;2.20;96.30;;;;;;5083534;28;27670;-49
2021/01/14 00:44:22;;;;;;;0.50;0.50;;;2.20;96.30;;;;;;5084164;28;27466;-49
2021/01/14 00:47:07;;;;;;;0.93;0.50;;;2.20;96.30;;;;;;5084051;28;27458;-50
2021/01/14 00:49:51;;;;;;;1.85;0.68;;;2.20;96.30;;;;;;5084165;28;27471;-50
2021/01/14 00:52:36;;;;;;;1.42;0.63;;;2.20;96.30;;;;;;5080561;28;27474;-50
2021/01/14 00:55:20;;;;;;;1.50;1.40;;;2.10;96.20;;;;;;5084221;28;27479;-50
2021/01/14 00:58:05;;;;;;;0.73;0.60;;;2.10;96.60;;;;;;5083885;28;27511;-49
2021/01/14 01:00:49;;;;;;;0.75;0.70;;;2.10;96.30;;;;;;5084141;28;27620;-51
2021/01/14 01:03:34;;;;;;;0.70;0.57;;;2.10;96.30;;;;;;5084051;28;27536;-51
2021/01/14 01:06:20;;;;;;;1.13;0.63;;;2.10;96.30;;;;;;5083824;28;27429;-51
2021/01/14 01:09:05;;;;;;;1.05;0.65;;;2.10;96.30;;;;;;5083808;28;27410;-52
2021/01/14 01:11:50;;;;;;;0.80;0.55;;;2.00;96.30;;;;;;5068622;28;27499;-49
2021/01/14 01:14:34;;;;;;;0.50;0.50;;;2.00;96.30;;;;;;5083987;28;27372;-50
2021/01/14 01:17:18;;;;;;;1.27;0.70;;;2.00;96.30;;;;;;5083683;28;27394;-51
2021/01/14 01:20:04;;;;;;;0.60;0.60;;;2.00;96.30;;;;;;5083621;28;27319;-54
2021/01/14 01:22:49;;;;;;;0.85;0.60;;;2.00;96.40;;;;;;5083483;28;27858;-58
2021/01/14 01:25:33;;;;;;;0.70;0.60;;;2.00;96.40;;;;;;5082088;28;27407;-58
2021/01/14 01:28:17;;;;;;;1.02;0.55;;;2.00;96.40;;;;;;5083860;28;27360;-58
2021/01/14 01:31:02;;;;;;;0.85;0.50;;;2.00;96.40;;;;;;5083782;28;27385;-59
2021/01/14 01:33:46;;;;;;;0.43;0.30;;;1.90;96.40;;;;;;5083379;28;27940;-58
2021/01/14 01:36:30;;;;;;;1.33;0.70;;;1.90;96.40;;;;;;5080480;28;27377;-60
2021/01/14 01:39:15;;;;;;;1.05;0.60;;;1.90;96.50;;;;;;5083474;28;27384;-58
2021/01/14 01:42:00;;;;;;;1.45;0.70;;;1.90;96.50;;;;;;5094793;28;27414;-57
2021/01/14 01:44:44;;;;;;;2.20;0.80;;;1.90;96.50;;;;;;5103989;28;27495;-58
2021/01/14 01:47:33;;;;;;;0.63;0.63;;;1.90;96.50;;;;;;5103852;27;27472;-58
2021/01/14 01:50:19;;;;;;;0.93;0.80;;;1.90;96.60;;;;;;5093017;28;27378;-59
2021/01/14 01:53:03;;;;;;;1.48;0.75;;;1.80;96.50;;;;;;5106610;28;27381;-59
2021/01/14 01:55:48;;;;;;;1.15;0.70;;;1.80;96.60;;;;;;5106278;28;27344;-59
2021/01/14 01:58:33;;;;;;;0.77;0.70;;;1.80;96.60;;;;;;5092289;28;27399;-59
2021/01/14 02:01:17;;;;;;;0.75;0.70;;;1.80;96.60;;;;;;5106452;28;27363;-59
2021/01/14 02:04:05;;;;;;;0.60;0.60;;;1.80;96.60;;;;;;5106893;28;27386;-59
2021/01/14 02:07:03;;;;;;;1.52;0.77;;;1.80;96.60;;;;;;5103845;28;27422;-59
2021/01/14 02:09:48;;;;;;;0.93;0.70;;;1.80;96.60;;;;;;5106342;28;27503;-59
2021/01/14 02:12:36;;;;;;;1.38;0.82;;;1.80;96.60;;;;;;5106789;28;27468;-58
2021/01/14 02:15:21;;;;;;;1.10;0.70;;;1.80;96.60;;;;;;5106747;28;27369;-60
2021/01/14 02:18:06;;;;;;;0.80;0.60;;;1.80;96.60;;;;;;5106732;28;27856;-59
2021/01/14 02:20:54;;;;;;;1.10;0.70;;;1.80;96.60;;;;;;5106212;28;27543;-59
2021/01/14 02:24:09;;;;;;;0.93;0.63;;;1.80;96.60;;;;;;5106187;28;27613;-60
2021/01/14 02:26:54;;;;;;;0.85;0.77;;;1.80;96.60;;;;;;5106014;28;27388;-59
2021/01/14 02:29:38;;;;;;;0.65;0.50;;;1.70;96.60;;;;;;5106000;28;27388;-59
2021/01/14 02:32:23;;;;;;;0.50;0.50;;;1.70;96.70;;;;;;5088038;28;27380;-58
2021/01/14 02:35:08;;;;;;;1.98;0.50;;;1.70;96.70;;;;;;5106798;28;27402;-58
2021/01/14 02:37:52;;;;;;;1.05;0.80;;;1.70;96.70;;;;;;5106725;28;27335;-59
2021/01/14 02:40:36;;;;;;;0.82;0.57;;;1.80;96.70;;;;;;5101038;28;27336;-57
2021/01/14 02:43:21;;;;;;;1.38;0.65;;;1.70;96.70;;;;;;5085893;28;27418;-58
2021/01/14 02:46:06;;;;;;;1.50;0.70;;;1.70;96.60;;;;;;5085913;28;27409;-58
2021/01/14 02:49:05;;;;;;;0.80;0.60;;;1.70;96.70;;;;;;5085563;28;27569;-57
2021/01/14 02:51:56;;;;;;;0.88;0.55;;;1.70;96.70;;;;;;5085730;28;27849;-57
2021/01/14 02:54:40;;;;;;;0.90;0.63;;;1.70;96.70;;;;;;5085700;28;27490;-55
2021/01/14 02:57:26;;;;;;;1.30;0.80;;;1.70;96.70;;;;;;5056490;28;27350;-56
2021/01/14 03:00:12;;;;;;;0.60;0.60;;;1.70;96.70;;;;;;5085637;28;27333;-52
2021/01/14 03:02:56;;;;;;;0.60;0.60;;;1.70;96.70;;;;;;5085185;28;27396;-50
2021/01/14 03:05:41;;;;;;;0.45;0.35;;;1.70;96.70;;;;;;5085564;28;27329;-50
2021/01/14 03:08:25;;;;;;;1.05;0.65;;;1.70;96.70;;;;;;5085809;28;27387;-52
2021/01/14 03:11:10;;;;;;;0.73;0.52;;;1.70;96.70;;;;;;5085525;28;27349;-51
2021/01/14 03:13:54;;;;;;;1.02;0.63;;;1.70;96.70;;;;;;5085324;28;28100;-50
2021/01/14 03:16:39;;;;;;;2.78;0.50;;;1.70;96.70;;;;;;5085272;28;27503;-51
2021/01/14 03:19:24;;;;;;;1.88;0.80;;;1.70;96.70;;;;;;5085370;28;27429;-50
2021/01/14 03:22:08;;;;;;;2.50;0.77;;;1.70;96.70;;;;;;5081830;28;27406;-50
2021/01/14 03:24:52;;;;;;;0.85;0.60;;;1.60;96.70;;;;;;5085278;28;27442;-51
2021/01/14 03:27:38;;;;;;;0.73;0.57;;;1.60;96.80;;;;;;5085500;28;27458;-50
2021/01/14 03:30:23;;;;;;;1.45;0.93;;;1.60;96.80;;;;;;5081997;28;27451;-51
2021/01/14 03:33:08;;;;;;;0.88;0.60;;;1.60;96.80;;;;;;5085439;28;27455;-50
2021/01/14 03:35:54;;;;;;;1.42;0.70;;;1.60;96.80;;;;;;5070120;28;27424;-50
2021/01/14 03:38:38;;;;;;;2.50;0.77;;;1.60;96.70;;;;;;5085279;28;27420;-51
2021/01/14 03:41:23;;;;;;;0.73;0.68;;;1.60;96.80;;;;;;5084055;28;27582;-52
2021/01/14 03:44:07;;;;;;;1.52;1.00;;;1.60;96.70;;;;;;5084994;28;27469;-51
2021/01/14 03:46:51;;;;;;;1.95;0.90;;;1.60;96.70;;;;;;5085121;28;27471;-50
2021/01/14 03:49:36;;;;;;;1.13;0.65;;;1.60;96.70;;;;;;5085057;28;27455;-50
2021/01/14 03:52:21;;;;;;;2.03;1.05;;;1.60;96.70;;;;;;5085129;28;27443;-51
2021/01/14 03:55:06;;;;;;;1.20;0.63;;;1.60;96.80;;;;;;5085055;28;27388;-51
2021/01/14 03:57:50;;;;;;;0.80;0.80;;;1.60;96.70;;;;;;5085032;28;27510;-52
2021/01/14 04:00:35;;;;;;;0.70;0.70;;;1.60;96.80;;;;;;5084868;28;27505;-52
2021/01/14 04:03:20;;;;;;;1.95;1.20;;;1.60;96.70;;;;;;5084992;28;27446;-53
2021/01/14 04:06:04;;;;;;;1.50;0.80;;;1.60;96.70;;;;;;5084647;28;27382;-51
2021/01/14 04:08:49;;;;;;;1.23;0.70;;;1.60;96.70;;;;;;5084832;28;27435;-54
2021/01/14 04:11:33;;;;;;;2.90;0.80;;;1.60;96.80;;;;;;5081024;28;27337;-52
2021/01/14 04:14:20;;;;;;;1.65;0.65;;;1.60;96.80;;;;;;5066214;28;27397;-54
2021/01/14 04:17:04;;;;;;;2.05;1.00;;;1.60;96.80;;;;;;5084560;28;27376;-54
2021/01/14 04:19:49;;;;;;;1.40;0.77;;;1.60;96.80;;;;;;5084642;28;27341;-55
2021/01/14 04:22:33;;;;;;;2.83;0.90;;;1.60;96.80;;;;;;5084328;28;27522;-52
2021/01/14 04:25:18;;;;;;;1.63;0.85;;;1.60;96.70;;;;;;5084390;28;27404;-55
2021/01/14 04:28:04;;;;;;;1.20;0.80;;;1.60;96.80;;;;;;5084571;28;27330;-55
2021/01/14 04:30:49;;;;;;;1.02;0.73;;;1.60;96.80;;;;;;5084244;28;27400;-54
2021/01/14 04:33:33;;;;;;;1.33;0.95;;;1.60;96.70;;;;;;5084514;28;27597;-56
2021/01/14 04:36:18;;;;;;;1.38;1.00;;;1.60;96.80;;;;;;5084200;28;27386;-55
2021/01/14 04:39:02;;;;;;;1.33;0.77;;;1.60;96.80;;;;;;5083716;28;27383;-55
2021/01/14 04:41:48;;;;;;;0.73;0.73;;;1.60;96.80;;;;;;5083103;28;28487;-55
2021/01/14 04:44:32;;;;;;;1.77;0.90;;;1.60;96.80;;;;;;5084086;28;27338;-54
2021/01/14 04:47:17;;;;;;;2.35;1.10;;;1.60;96.80;;;;;;5069022;28;27324;-55
2021/01/14 04:50:01;;;;;;;1.75;1.00;;;1.60;96.80;;;;;;5054829;28;27383;-56
2021/01/14 04:52:47;;;;;;;2.42;1.15;;;1.60;96.80;;;;;;5068932;28;27349;-56
2021/01/14 04:55:44;;;;;;;2.58;1.35;;;1.60;96.70;;;;;;5083925;28;27432;-56
2021/01/14 04:58:29;;;;;;;1.42;0.90;;;1.60;96.80;;;;;;5056164;28;27335;-55
2021/01/14 05:01:20;;;;;;;2.30;0.95;;;1.60;96.80;;;;;;5083761;28;27328;-56
2021/01/14 05:04:05;;;;;;;1.65;1.50;;;1.60;96.80;;;;;;5083924;28;27377;-58
2021/01/14 05:06:56;;;;;;;2.03;1.15;;;1.60;96.80;;;;;;5068716;28;27424;-57
2021/01/14 05:09:40;;;;;;;3.95;1.50;;;1.50;96.80;;;;;;5069422;28;27493;-57
2021/01/14 05:12:25;;;;;;;2.47;1.60;;;1.60;96.80;;;;;;5069042;28;27452;-59
2021/01/14 05:15:10;;;;;;;4.78;1.92;;;1.60;96.80;;;;;;5083709;28;27363;-57
2021/01/14 05:17:56;;;;;;;2.60;1.73;;;1.60;96.80;;;;;;5068703;28;27400;-58
2021/01/14 05:20:41;;;;;;;2.10;1.60;;;1.60;96.80;;;;;;5083981;28;27467;-58
2021/01/14 05:23:28;;;;;;;3.72;2.17;;;1.60;96.80;;;;;;5084548;28;27396;-58
2021/01/14 05:26:18;;;;;;;2.28;1.83;;;1.50;96.80;;;;;;5087419;28;27494;-58
2021/01/14 05:29:16;;;;;;;4.75;2.17;;;1.50;96.80;;;;;;5055224;28;27401;-58
2021/01/14 05:32:01;;;;;;;3.92;2.13;;;1.50;96.80;;;;;;5086801;28;27413;-58
2021/01/14 05:34:48;;;;;;;2.88;1.90;;;1.60;96.80;;;;;;5087048;28;27428;-58
2021/01/14 05:37:35;;;;;;;2.28;1.80;;;1.50;96.80;;;;;;5086971;28;27418;-58
2021/01/14 05:40:23;;;;;;;3.05;2.10;;;1.60;96.80;;;;;;5086511;28;27455;-58
2021/01/14 05:43:07;;;;;;;2.80;2.10;;;1.60;96.80;;;;;;5087224;28;27353;-57
2021/01/14 05:45:52;;;;;;;2.55;1.83;;;1.60;96.80;;;;;;5087112;28;27391;-57
2021/01/14 05:48:36;;;;;;;3.10;2.20;;;1.50;96.80;;;;;;5071694;28;27383;-58
2021/01/14 05:51:22;;;;;;;3.20;1.95;;;1.50;96.80;;;;;;5071607;28;27464;-56
2021/01/14 05:54:08;;;;;;;2.47;2.10;;;1.50;96.80;;;;;;5087044;28;27375;-57
2021/01/14 05:56:53;;;;;;;3.08;2.22;;;1.50;96.80;;;;;;5071573;28;27375;-57
2021/01/14 05:59:37;;;;;;;4.00;2.10;;;1.50;96.80;;;;;;5057583;28;27404;-57
2021/01/14 06:02:29;;;;;;;3.17;2.05;;;1.50;96.80;;;;;;5053878;28;27480;-58
2021/01/14 06:05:32;;;;;;;2.42;1.80;;;1.50;96.80;;;;;;5086776;28;27389;-57
2021/01/14 06:08:29;;;;;;;2.47;1.80;;;1.50;96.80;;;;;;5086739;28;27416;-57
2021/01/14 06:11:23;;;;;;;1.88;1.70;;;1.50;96.80;;;;;;5071613;28;27416;-57
2021/01/14 06:14:26;;;;;;;3.85;2.10;;;1.50;96.80;;;;;;5086631;28;27455;-57
2021/01/14 06:17:11;;;;;;;3.67;2.30;;;1.50;96.80;;;;;;5073135;28;27488;-56
2021/01/14 06:20:08;;;;;;;3.15;2.35;;;1.50;96.80;;;;;;5086315;28;27405;-57
2021/01/14 06:22:56;;;;;;;4.85;2.13;;;1.50;96.80;;;;;;5086161;28;27547;-57
2021/01/14 06:25:51;;;;;;;4.00;2.47;;;1.50;96.80;;;;;;5086183;28;27376;-57
2021/01/14 06:28:36;;;;;;;5.43;2.40;;;1.50;96.80;;;;;;5085943;28;27423;-58
2021/01/14 06:31:25;;;;;;;3.47;2.20;;;1.50;96.80;;;;;;5071087;28;27392;-58
2021/01/14 06:34:11;;;;;;;3.35;2.58;;;1.50;96.80;;;;;;5082727;28;27320;-58
2021/01/14 06:36:56;;;;;;;4.22;2.38;;;1.50;96.90;;;;;;5085991;28;27479;-57
2021/01/14 06:39:42;;;;;;;4.13;2.72;;;1.50;96.90;;;;;;5056950;28;27527;-58
2021/01/14 06:42:31;;;;;;;4.55;2.63;;;1.50;96.90;;;;;;5085229;28;27479;-58
2021/01/14 06:45:15;;;;;;;3.10;2.58;;;1.50;96.90;;;;;;5086177;28;27428;-60
2021/01/14 06:48:03;;;;;;;3.15;2.50;;;1.50;96.90;;;;;;5056812;28;27444;-58
2021/01/14 06:50:48;;;;;;;4.65;2.70;;;1.50;97.00;;;;;;5067470;28;27416;-57
2021/01/14 06:53:33;;;;;;;4.82;2.92;;;1.50;97.00;;;;;;5071027;28;27421;-56
2021/01/14 06:56:17;;;;;;;2.30;2.10;;;1.50;97.00;;;;;;5070368;28;27869;-56
2021/01/14 06:59:02;;;;;;;3.45;2.22;;;1.50;96.90;;;;;;5070553;28;27345;-57
2021/01/14 07:02:06;;;;;;;2.70;1.98;;;1.50;96.90;;;;;;5056279;28;27420;-56
2021/01/14 07:05:00;;;;;;;3.67;1.90;;;1.50;96.80;;;;;;5085917;28;27334;-55
2021/01/14 07:07:48;;;;;;;2.15;1.75;;;1.50;96.80;;;;;;5070796;28;27560;-57
2021/01/14 07:10:33;;;;;;;1.92;1.50;;;1.50;96.80;;;;;;5085485;28;27571;-56
2021/01/14 07:13:19;;;;;;;2.30;1.30;;;1.50;96.70;;;;;;5053212;28;27380;-57
2021/01/14 07:16:04;;;;;;;2.20;1.52;;;1.50;96.70;;;;;;5056496;28;27400;-57
2021/01/14 07:18:49;;;;;;;1.13;1.02;;;1.50;96.70;;;;;;5085633;28;27332;-55
2021/01/14 07:21:37;;;;;;;2.35;1.48;;;1.50;96.70;;;;;;5084817;28;27344;-56
2021/01/14 07:24:26;;;;;;;3.50;1.42;;;1.50;96.70;;;;;;5085254;28;27421;-56
2021/01/14 07:27:11;;;;;;;4.88;1.50;;;1.50;96.70;;;;;;5085249;28;27362;-56
2021/01/14 07:29:58;;;;;;;3.08;1.73;;;1.50;96.60;;;;;;5070217;28;27413;-55
2021/01/14 07:32:53;;;;;;;2.20;1.38;;;1.50;96.60;;;;;;5085499;28;27384;-56
2021/01/14 07:35:42;;;;;;;1.85;1.08;;;1.50;96.60;;;;;;5085451;28;27436;-56
2021/01/14 07:38:27;;;;;;;2.13;1.45;;;1.50;96.60;;;;;;5085035;28;27463;-54
2021/01/14 07:41:11;;;;;;;2.35;1.70;;;1.50;96.60;;;;;;5068144;28;27492;-56
2021/01/14 07:43:56;;;;;;;2.20;1.77;;;1.50;96.60;;;;;;5105364;28;27438;-56
2021/01/14 07:46:40;;;;;;;2.90;2.10;;;1.50;96.60;;;;;;5089589;28;27460;-57
2021/01/14 07:49:28;;;;;;;4.50;1.92;;;1.50;96.60;;;;;;5104428;28;27333;-57
2021/01/14 07:52:14;;;;;;;3.85;2.22;;;1.50;96.60;;;;;;5105554;28;27487;-57
2021/01/14 07:55:00;;;;;;;3.38;2.35;;;1.50;96.60;;;;;;5104489;28;27521;-55
2021/01/14 07:57:48;;;;;;;4.03;2.28;;;1.50;96.60;;;;;;5105262;28;27415;-56
2021/01/14 08:00:32;;;;;;;2.28;2.03;;;1.50;96.50;;;;;;5105429;28;27374;-58
2021/01/14 08:03:18;;;;;;;2.20;1.55;;;1.50;96.50;;;;;;5105071;28;27346;-57
2021/01/14 08:06:25;;;;;;;2.47;2.00;;;1.50;96.50;;;;;;5105299;28;27359;-56
2021/01/14 08:09:10;;;;;;;3.17;2.58;;;1.50;96.60;;;;;;5105342;28;27414;-56
2021/01/14 08:11:55;;;;;;;4.78;3.53;;;1.50;96.60;;;;;;5102001;28;27346;-57
2021/01/14 08:14:39;;;;;;;5.93;3.13;;;1.50;96.60;;;;;;5105174;28;27374;-57
2021/01/14 08:17:26;;;;;;;4.20;2.88;;;1.50;96.50;;;;;;5104543;28;27340;-56
2021/01/14 08:20:16;;;;;;;4.30;2.50;;;1.50;96.50;;;;;;5105243;28;27443;-55
2021/01/14 08:23:00;;;;;;;3.40;2.63;;;1.50;96.50;;;;;;5103757;28;27421;-55
2021/01/14 08:25:45;;;;;;;3.08;2.53;;;1.50;96.60;;;;;;5089669;28;27482;-57
2021/01/14 08:28:32;;;;;;;5.38;3.00;;;1.50;96.60;;;;;;5104581;28;27482;-57
2021/01/14 08:31:35;;;;;;;3.28;2.47;;;1.50;96.50;;;;;;5100705;28;27403;-58
2021/01/14 08:34:21;;;;;;;5.40;3.25;;;1.50;96.60;;;;;;5104881;28;27433;-58
2021/01/14 08:37:05;;;;;;;7.13;3.35;;;1.50;96.70;;;;;;5072443;28;27375;-58
2021/01/14 08:39:51;;;;;;;5.57;3.33;;;1.50;96.60;;;;;;5104032;28;27544;-58
2021/01/14 08:42:37;;;;;;;8.15;4.07;;;1.50;96.70;;;;;;5089305;28;27361;-57
2021/01/14 08:45:27;;;;;;;5.55;4.15;;;1.50;96.70;;;;;;5101679;28;27329;-57
2021/01/14 08:48:27;;;;;;;4.68;3.38;;;1.50;96.60;;;;;;5104403;28;27411;-57
2021/01/14 08:51:18;;;;;;;8.80;4.63;;;1.50;96.60;;;;;;5104485;28;27368;-57
2021/01/14 08:54:06;;;;;;;8.55;3.90;;;1.50;96.60;;;;;;5104593;28;27494;-58
2021/01/14 08:56:50;;;;;;;5.15;3.50;;;1.50;96.60;;;;;;5104506;27;27423;-58
2021/01/14 08:59:35;;;;;;;6.60;3.42;;;1.50;96.60;;;;;;5092811;28;27409;-59
2021/01/14 09:02:21;;;;;;;7.00;3.63;;;1.50;96.60;;;;;;5092865;28;27477;-58
2021/01/14 09:05:06;;;;;;;5.85;3.80;;;1.50;96.50;;;;;;5107210;28;27344;-57
2021/01/14 09:08:12;;;;;;;5.97;3.70;;;1.50;96.60;;;;;;5107888;28;27367;-58
2021/01/14 09:10:57;;;;;;;6.60;3.17;;;1.50;96.60;;;;;;5107759;28;27825;-59
2021/01/14 09:13:42;;;;;;;5.68;3.40;;;1.50;96.60;;;;;;5104540;28;27375;-59
2021/01/14 09:16:27;;;;;;;4.70;3.17;;;1.50;96.50;;;;;;5107782;28;27347;-62
2021/01/14 09:19:19;;;;;;;6.50;3.65;;;1.50;96.50;;;;;;5107727;28;27400;-58
2021/01/14 09:22:03;;;;;;;5.72;2.95;;;1.60;96.60;;;;;;5107784;28;27431;-58
2021/01/14 09:24:47;;;;;;;6.43;3.40;;;1.60;96.60;;;;;;5107809;28;27477;-58
2021/01/14 09:27:33;;;;;;;5.47;2.97;;;1.60;96.60;;;;;;5107635;28;27413;-58
2021/01/14 09:30:18;;;;;;;4.25;3.30;;;1.60;96.60;;;;;;5092598;28;27424;-58
2021/01/14 09:33:02;;;;;;;5.22;3.08;;;1.60;96.50;;;;;;5107440;28;27475;-57
2021/01/14 09:35:57;;;;;;;6.75;2.55;;;1.60;96.50;;;;;;5107662;28;27475;-59
2021/01/14 09:38:55;;;;;;;6.63;3.00;;;1.60;96.50;;;;;;5107688;28;27410;-59
2021/01/14 09:41:39;;;;;;;4.20;2.88;;;1.60;96.40;;;;;;5093356;28;27477;-58
2021/01/14 09:44:24;;;;;;;3.70;2.75;;;1.60;96.30;;;;;;5087088;28;27443;-59
2021/01/14 09:47:08;;;;;;;3.40;2.35;;;1.60;96.30;;;;;;5057465;28;27472;-59
2021/01/14 09:49:53;;;;;;;4.15;2.70;;;1.70;96.20;;;;;;5072050;28;27462;-59
2021/01/14 09:52:37;;;;;;;3.67;2.65;;;1.70;96.30;;;;;;5071814;28;26977;-61
2021/01/14 09:55:22;;;;;;;5.90;2.50;;;1.70;96.20;;;;;;5086650;28;27431;-58
2021/01/14 09:58:06;;;;;;;4.47;2.30;;;1.70;96.30;;;;;;5057679;28;27508;-58
2021/01/14 10:00:51;;;;;;;5.57;2.15;;;1.70;96.30;;;;;;5086920;28;27426;-58
2021/01/14 10:03:36;;;;;;;3.95;2.50;;;1.70;96.30;;;;;;5071768;28;27432;-58
2021/01/14 10:06:21;;;;;;;3.17;2.13;;;1.60;96.30;;;;;;5071362;28;27983;-59
2021/01/14 10:09:07;;;;;;;2.63;2.05;;;1.60;96.30;;;;;;5067631;28;27471;-59
2021/01/14 10:11:51;;;;;;;3.08;2.10;;;1.70;96.40;;;;;;5086537;28;27435;-59
2021/01/14 10:14:36;;;;;;;2.63;2.13;;;1.70;96.40;;;;;;5071799;28;27420;-60
2021/01/14 10:17:21;;;;;;;2.75;2.22;;;1.70;96.30;;;;;;5086651;28;27434;-58
2021/01/14 10:20:11;;;;;;;5.30;2.40;;;1.70;96.30;;;;;;5086125;28;27353;-59
2021/01/14 10:22:56;;;;;;;5.80;3.20;;;1.70;96.30;;;;;;5086147;28;27320;-59
2021/01/14 10:25:47;;;;;;;4.47;2.42;;;1.70;96.20;;;;;;5086155;28;27399;-59
2021/01/14 10:28:46;;;;;;;3.05;2.15;;;1.70;96.10;;;;;;5086401;28;27459;-62
2021/01/14 10:31:38;;;;;;;6.72;3.65;;;1.70;96.10;;;;;;5082770;28;27430;-59
2021/01/14 10:34:23;;;;;;;5.93;3.90;;;1.70;96.10;;;;;;5082886;28;27471;-59
2021/01/14 10:37:17;;;;;;;5.65;3.42;;;1.70;96.10;;;;;;5086237;28;27474;-59
2021/01/14 10:40:16;;;;;;;4.63;3.47;;;1.70;96.10;;;;;;5086091;28;27478;-59
2021/01/14 10:43:01;;;;;;;3.58;2.63;;;1.70;96.10;;;;;;5085923;28;27349;-59
2021/01/14 10:45:46;;;;;;;4.05;3.13;;;1.70;96.20;;;;;;5085917;28;27357;-59
2021/01/14 10:48:38;;;;;;;5.93;3.30;;;1.70;96.20;;;;;;5042645;28;27417;-60
2021/01/14 10:51:33;;;;;;;7.13;4.10;;;1.80;96.20;;;;;;5082775;28;27455;-60
2021/01/14 10:54:20;;;;;;;6.93;3.90;;;1.80;96.10;;;;;;5070715;28;27537;-59
2021/01/14 10:57:04;;;;;;;4.95;3.75;;;1.80;96.10;;;;;;5086123;28;27447;-59
2021/01/14 10:59:49;;;;;;;8.73;3.70;;;1.80;96.10;;;;;;5085250;28;27482;-59
2021/01/14 11:02:34;;;;;;;7.18;4.03;;;1.80;96.10;;;;;;5085403;28;27465;-59
2021/01/14 11:05:19;;;;;;;5.45;3.55;;;1.80;96.10;;;;;;5085605;28;27427;-59
2021/01/14 11:08:07;;;;;;;7.15;3.65;;;1.80;96.10;;;;;;5085898;28;27371;-59
2021/01/14 11:11:06;;;;;;;6.35;3.95;;;1.80;96.10;;;;;;5085563;28;27387;-59
2021/01/14 11:13:51;;;;;;;5.43;3.28;;;1.80;96.10;;;;;;5085376;28;27469;-59
2021/01/14 11:16:36;;;;;;;6.25;3.88;;;1.80;96.10;;;;;;5085647;28;27473;-59
2021/01/14 11:19:20;;;;;;;6.40;4.03;;;1.80;96.10;;;;;;5085780;28;27321;-59
2021/01/14 11:22:05;;;;;;;9.10;4.20;;;1.80;96.10;;;;;;5083951;28;27337;-60
2021/01/14 11:24:52;;;;;;;7.88;4.32;;;1.80;96.10;;;;;;5085589;28;27977;-60
2021/01/14 11:27:37;;;;;;;5.93;3.70;;;1.90;96.20;;;;;;5084832;28;27438;-60
2021/01/14 11:30:22;;;;;;;5.97;3.30;;;1.90;96.10;;;;;;5085278;28;27538;-62
2021/01/14 11:33:06;;;;;;;5.15;3.38;;;1.90;96.10;;;;;;5085202;28;27455;-59
2021/01/14 11:35:50;;;;;;;4.57;3.20;;;1.90;96.10;;;;;;5085376;28;28030;-59
2021/01/14 11:38:35;;;;;;;5.30;3.67;;;1.90;96.10;;;;;;5085424;28;27381;-59
2021/01/14 11:41:21;;;;;;;6.43;4.03;;;1.90;96.00;;;;;;5084555;28;27404;-59
2021/01/14 11:44:05;;;;;;;6.93;3.85;;;2.00;96.10;;;;;;5085287;28;27424;-59
2021/01/14 11:46:50;;;;;;;5.68;3.25;;;2.00;96.10;;;;;;5085167;28;27317;-58
2021/01/14 11:49:34;;;;;;;6.10;3.20;;;2.00;96.10;;;;;;5081923;28;27524;-59
2021/01/14 11:52:20;;;;;;;4.65;3.30;;;2.00;96.10;;;;;;5081948;28;27409;-59
2021/01/14 11:55:05;;;;;;;4.68;3.67;;;2.00;96.00;;;;;;5084145;28;27387;-61
2021/01/14 11:57:49;;;;;;;4.63;3.20;;;2.10;95.80;;;;;;5085038;28;27362;-60
2021/01/14 12:00:34;;;;;;;5.45;3.33;;;2.10;95.70;;;;;;5085007;28;27368;-60
2021/01/14 12:03:19;;;;;;;4.75;3.63;;;2.00;95.60;;;;;;5084423;28;27412;-59
2021/01/14 12:06:04;;;;;;;5.85;3.45;;;2.10;95.60;;;;;;5084975;28;27343;-59
2021/01/14 12:08:48;;;;;;;6.07;3.80;;;2.00;95.60;;;;;;5084698;28;28025;-59
2021/01/14 12:11:33;;;;;;;5.45;3.55;;;2.10;95.60;;;;;;5076141;28;27325;-59
2021/01/14 12:14:17;;;;;;;6.15;3.70;;;2.10;95.60;;;;;;5064668;28;27405;-59
2021/01/14 12:17:02;;;;;;;5.50;3.70;;;2.10;95.60;;;;;;5064327;28;27329;-59
2021/01/14 12:19:46;;;;;;;4.72;3.22;;;2.10;95.60;;;;;;5064172;28;27339;-59
2021/01/14 12:22:34;;;;;;;7.10;4.18;;;2.10;95.50;;;;;;5060685;28;27419;-58
2021/01/14 12:25:18;;;;;;;3.45;3.03;;;2.10;95.50;;;;;;5060930;28;27295;-58
2021/01/14 12:28:03;;;;;;;4.68;3.50;;;2.10;95.40;;;;;;5064130;28;27394;-58
2021/01/14 12:30:48;;;;;;;5.65;2.88;;;2.20;95.50;;;;;;5064364;28;27943;-58
2021/01/14 12:33:33;;;;;;;6.45;3.25;;;2.10;95.40;;;;;;5063610;28;27422;-58
2021/01/14 12:36:17;;;;;;;7.78;3.40;;;2.10;95.40;;;;;;5064050;28;26909;-58
2021/01/14 12:39:02;;;;;;;5.13;3.03;;;2.10;95.40;;;;;;5064028;28;27328;-58
2021/01/14 12:41:47;;;;;;;5.18;3.15;;;2.10;95.30;;;;;;5063195;28;27453;-57
2021/01/14 12:44:33;;;;;;;5.28;3.22;;;2.10;95.30;;;;;;5063171;28;27861;-57
2021/01/14 12:47:17;;;;;;;4.85;3.17;;;2.10;95.30;;;;;;5063936;28;27375;-56
2021/01/14 12:50:03;;;;;;;3.63;2.72;;;2.10;95.40;;;;;;5063470;28;27388;-56
2021/01/14 12:52:47;;;;;;;3.83;3.08;;;2.10;95.40;;;;;;5063745;28;27347;-57
2021/01/14 12:55:32;;;;;;;4.70;3.40;;;2.10;95.70;;;;;;5063752;28;27381;-57
2021/01/14 12:58:16;;;;;;;5.50;3.08;;;2.10;95.50;;;;;;5063750;28;27391;-57
2021/01/14 13:01:01;;;;;;;4.60;2.97;;;2.10;95.50;;;;;;5063931;28;27397;-57
2021/01/14 13:03:45;;;;;;;4.47;2.83;;;2.10;95.50;;;;;;5063866;28;27483;-57
2021/01/14 13:06:31;;;;;;;4.60;3.50;;;2.10;95.60;;;;;;5063580;28;27440;-58
2021/01/14 13:09:15;;;;;;;5.55;3.28;;;2.10;95.70;;;;;;5063674;28;27407;-58
2021/01/14 13:12:00;;;;;;;5.05;2.83;;;2.10;95.70;;;;;;5048589;28;27448;-58
2021/01/14 13:14:44;;;;;;;3.80;2.83;;;2.10;95.70;;;;;;5048607;28;27858;-58
2021/01/14 13:17:28;;;;;;;4.97;2.90;;;2.10;95.80;;;;;;5062996;28;27663;-58
2021/01/14 13:20:13;;;;;;;3.60;2.45;;;2.10;95.80;;;;;;5063720;28;27427;-57
2021/01/14 13:22:58;;;;;;;4.75;2.88;;;2.10;95.90;;;;;;5063377;28;27421;-57
2021/01/14 13:25:43;;;;;;;3.45;2.72;;;2.10;95.90;;;;;;5063630;28;27478;-58
2021/01/14 13:28:27;;;;;;;4.72;2.90;;;2.10;95.90;;;;;;5063634;28;27460;-52
2021/01/14 13:31:12;;;;;;;6.13;3.28;;;2.10;95.90;;;;;;5063631;28;27479;-57
2021/01/14 13:33:56;;;;;;;4.60;2.78;;;2.10;95.90;;;;;;5063553;28;27393;-56
2021/01/14 13:36:42;;;;;;;3.95;3.10;;;2.10;95.90;;;;;;5063471;28;27416;-54
2021/01/14 13:39:26;;;;;;;5.78;3.47;;;2.10;95.80;;;;;;5063081;28;27599;-56
2021/01/14 13:42:11;;;;;;;6.45;3.55;;;2.10;95.80;;;;;;5062474;28;27484;-56
2021/01/14 13:44:56;;;;;;;6.80;3.92;;;2.10;95.80;;;;;;5064496;28;27467;-54
2021/01/14 13:47:40;;;;;;;5.63;3.78;;;2.10;95.90;;;;;;5066576;28;27965;-56
2021/01/14 13:50:25;;;;;;;7.68;3.95;;;2.00;95.90;;;;;;5066775;28;27413;-56
2021/01/14 13:53:09;;;;;;;7.13;3.58;;;2.00;95.90;;;;;;5066794;28;27356;-55
2021/01/14 13:55:54;;;;;;;6.28;3.60;;;2.00;95.90;;;;;;5066453;28;27420;-55
2021/01/14 13:58:38;;;;;;;5.72;3.85;;;2.00;95.90;;;;;;5066672;28;27399;-53
2021/01/14 14:01:27;;;;;;;5.90;3.95;;;2.00;95.90;;;;;;5066566;28;27369;-54
2021/01/14 14:04:11;;;;;;;6.78;4.35;;;2.00;95.90;;;;;;5066632;28;27528;-52
2021/01/14 14:06:57;;;;;;;8.35;3.88;;;2.00;95.90;;;;;;5066606;28;27423;-54
2021/01/14 14:09:41;;;;;;;6.60;3.80;;;2.00;95.90;;;;;;5066485;28;27428;-55
2021/01/14 14:12:26;;;;;;;4.68;3.28;;;2.00;96.00;;;;;;5065947;28;27495;-51
2021/01/14 14:15:11;;;;;;;7.47;3.80;;;2.00;96.00;;;;;;5066502;28;27547;-52
2021/01/14 14:17:55;;;;;;;5.43;3.35;;;2.00;95.90;;;;;;5066278;28;27429;-51
2021/01/14 14:20:40;;;;;;;5.40;3.67;;;2.00;95.90;;;;;;5066052;28;27365;-55
2021/01/14 14:23:24;;;;;;;5.78;2.90;;;2.00;95.90;;;;;;5065650;28;27427;-55
2021/01/14 14:26:09;;;;;;;6.25;4.28;;;2.00;95.90;;;;;;5066281;28;27432;-55
2021/01/14 14:28:53;;;;;;;5.50;3.28;;;1.90;95.90;;;;;;5065866;28;27407;-56
2021/01/14 14:31:41;;;;;;;6.00;3.20;;;1.90;96.00;;;;;;5066084;28;27882;-55
2021/01/14 14:34:26;;;;;;;5.15;3.47;;;1.90;96.00;;;;;;5065748;28;27467;-56
2021/01/14 14:37:10;;;;;;;4.65;3.05;;;1.90;96.00;;;;;;5065958;28;27641;-55